Terminal Aerodrome Forecast
Issued by NWS

Home | Current Version | Previous Version | Text Only | Print | Product List | Glossary Off
Versions: 1 2 3 4 5 6 7 8 9 10 11 12 13 14 15 16

000
FTUS43 KBIS 260115 AAA
TAFMOT
TAF AMD
KMOT 260115Z 2601/2624 07008KT P6SM OVC040
     FM260600 05008KT P6SM -RA OVC040
     FM260900 05007KT 6SM -RASN OVC025
     FM261200 04007KT P6SM VCSH OVC008
     FM262000 08011KT P6SM OVC015=

USA.gov is the U.S. government's official web portal to all federal, state and local government web resources and services.